Marion, South Dakota
Current Conditions -  °F | °C
As of 7:56 PM on Wednesday 26 Nov 2014 (Local Time) from KFSD Reporting Station
Overcast Overcast  
Wind Chill: -3°   Ceiling: 7000
Heat Index: 13°   Visibility: 10mi
Dew Point:   Wind: 15mph
Humidity: 67%   Direction: 350°N
Pressure: 30.4"   Gusts: NA
Location:  43.42°N, 97.26°W
Report Text: KFSD 270156Z 35013KT 10SM OVC070 M11/M16 A3040 RMK AO2 SLP320 T11061156
Loading
Personal Weather Stations






























Interactive Weather Map New forecast layout! Learn more

10-Day Weather Forecast

Advertisements
Track Severe Weather on mobile